createdAt,value
2023-12-27T00:01:49.548Z,2.00
2023-12-27T00:04:16.495Z,2.10
2023-12-27T00:06:43.556Z,1.83
2023-12-27T00:09:10.527Z,1.95
2023-12-27T00:11:37.691Z,1.98
2023-12-27T00:14:04.788Z,2.63
2023-12-27T00:16:31.702Z,2.03
2023-12-27T00:18:58.706Z,2.10
2023-12-27T00:21:26.061Z,1.98
2023-12-27T00:23:52.993Z,2.15
2023-12-27T00:26:19.815Z,1.80
2023-12-27T00:28:55.330Z,2.25
2023-12-27T00:31:22.187Z,2.10
2023-12-27T00:33:49.219Z,1.83
2023-12-27T00:36:21.310Z,1.90
2023-12-27T00:38:48.445Z,2.20
2023-12-27T00:41:15.847Z,2.20
2023-12-27T00:43:44.565Z,2.33
2023-12-27T00:46:11.466Z,1.83
2023-12-27T00:48:38.482Z,2.22
2023-12-27T00:51:07.030Z,2.00
2023-12-27T00:53:33.987Z,1.80
2023-12-27T00:56:01.008Z,1.83
2023-12-27T00:58:28.231Z,1.80
2023-12-27T01:00:55.147Z,2.00
2023-12-27T01:03:22.192Z,1.90
2023-12-27T01:05:49.113Z,1.80
2023-12-27T01:08:15.907Z,1.63
2023-12-27T01:10:42.753Z,1.80
2023-12-27T01:13:10.130Z,1.90
2023-12-27T01:15:37.069Z,1.77
2023-12-27T01:18:04.861Z,1.45
2023-12-27T01:20:32.293Z,1.77
2023-12-27T01:22:59.109Z,1.60
2023-12-27T01:25:26.617Z,1.90
2023-12-27T01:27:55.102Z,1.75
2023-12-27T01:30:22.221Z,1.58
2023-12-27T01:32:49.850Z,1.77
2023-12-27T01:35:18.462Z,1.75
2023-12-27T01:37:45.770Z,2.20
2023-12-27T01:40:12.723Z,1.80
2023-12-27T01:42:40.408Z,1.70
2023-12-27T01:45:07.932Z,1.88
2023-12-27T01:47:38.333Z,2.00
2023-12-27T01:50:07.539Z,1.73
2023-12-27T01:52:34.682Z,1.58
2023-12-27T01:55:02.311Z,1.63
2023-12-27T01:57:29.579Z,1.77
2023-12-27T01:59:56.608Z,1.63
2023-12-27T02:02:24.229Z,2.13
2023-12-27T02:04:51.236Z,1.70
2023-12-27T02:07:24.987Z,1.60
2023-12-27T02:09:58.552Z,2.03
2023-12-27T02:12:30.053Z,1.88
2023-12-27T02:14:57.252Z,1.67
2023-12-27T02:17:26.914Z,2.13
2023-12-27T02:19:54.857Z,1.60
2023-12-27T02:22:24.095Z,1.67
2023-12-27T02:24:52.571Z,2.47
2023-12-27T02:27:19.522Z,2.00
2023-12-27T02:29:46.803Z,1.42
2023-12-27T02:32:13.802Z,2.10
2023-12-27T02:34:40.881Z,2.00
2023-12-27T02:37:08.045Z,1.50
2023-12-27T02:39:36.145Z,1.75
2023-12-27T02:42:03.110Z,2.25
2023-12-27T02:44:31.164Z,2.10
2023-12-27T02:46:58.467Z,2.03
2023-12-27T02:49:25.390Z,2.30
2023-12-27T02:51:52.308Z,2.45
2023-12-27T02:54:20.020Z,2.03
2023-12-27T02:56:46.879Z,2.22
2023-12-27T02:59:13.659Z,1.85
2023-12-27T03:01:41.491Z,2.53
2023-12-27T03:04:08.308Z,2.30
2023-12-27T03:06:35.216Z,2.35
2023-12-27T03:09:02.854Z,2.65
2023-12-27T03:11:31.835Z,2.50
2023-12-27T03:13:58.762Z,2.05
2023-12-27T03:16:25.716Z,2.35
2023-12-27T03:18:52.725Z,2.42
2023-12-27T03:21:19.584Z,2.47
2023-12-27T03:23:47.680Z,2.60
2023-12-27T03:26:16.614Z,2.30
2023-12-27T03:28:43.474Z,2.40
2023-12-27T03:31:10.482Z,2.28
2023-12-27T03:33:37.510Z,1.98
2023-12-27T03:36:04.749Z,2.40
2023-12-27T03:38:31.645Z,2.08
2023-12-27T03:40:58.934Z,2.28
2023-12-27T03:43:25.818Z,2.17
2023-12-27T03:45:55.271Z,2.38
2023-12-27T03:48:22.407Z,2.33
2023-12-27T03:50:49.361Z,2.40
2023-12-27T03:53:16.172Z,2.67
2023-12-27T03:55:43.728Z,2.75
2023-12-27T03:58:10.619Z,2.38
2023-12-27T04:00:37.634Z,2.08
2023-12-27T04:03:04.953Z,2.38
2023-12-27T04:05:32.127Z,2.35
2023-12-27T04:07:59.311Z,2.30
2023-12-27T04:10:32.592Z,3.05
2023-12-27T04:13:00.143Z,3.53
2023-12-27T04:15:27.922Z,2.97
2023-12-27T04:17:55.270Z,2.60
2023-12-27T04:20:22.232Z,2.70
2023-12-27T04:22:49.138Z,2.80
2023-12-27T04:25:16.090Z,3.22
2023-12-27T04:27:42.861Z,2.92
2023-12-27T04:30:10.306Z,3.28
2023-12-27T04:32:37.297Z,2.42
2023-12-27T04:35:04.514Z,3.20
2023-12-27T04:37:31.301Z,2.92
2023-12-27T04:39:58.687Z,2.90
2023-12-27T04:42:25.637Z,2.78
2023-12-27T04:44:52.499Z,3.13
2023-12-27T04:47:19.500Z,3.63
2023-12-27T04:49:46.630Z,3.40
2023-12-27T04:52:15.884Z,3.47
2023-12-27T04:54:43.802Z,3.65
2023-12-27T04:59:51.425Z,4.65
2023-12-27T05:02:19.396Z,4.55
2023-12-27T05:04:47.212Z,4.30
2023-12-27T05:07:14.506Z,4.18
2023-12-27T05:09:41.568Z,4.00
2023-12-27T05:12:08.445Z,3.90
2023-12-27T05:14:35.226Z,4.20
2023-12-27T05:17:02.022Z,3.95
2023-12-27T05:19:28.877Z,3.75
2023-12-27T05:21:55.684Z,3.55
2023-12-27T05:24:22.538Z,4.38
2023-12-27T05:26:49.395Z,4.15
2023-12-27T05:29:16.866Z,3.70
2023-12-27T05:31:43.879Z,3.78
2023-12-27T05:34:10.917Z,3.95
2023-12-27T05:36:37.908Z,4.32
2023-12-27T05:39:04.936Z,4.20
2023-12-27T05:41:32.266Z,4.45
2023-12-27T05:43:59.866Z,4.35
2023-12-27T05:46:26.709Z,4.25
2023-12-27T05:48:53.635Z,4.10
2023-12-27T05:51:21.030Z,3.80
2023-12-27T05:53:47.845Z,4.68
2023-12-27T05:56:14.669Z,3.90
2023-12-27T05:58:41.483Z,3.35
2023-12-27T06:01:10.268Z,3.97
2023-12-27T06:03:37.198Z,4.22
2023-12-27T06:06:04.386Z,4.15
2023-12-27T06:08:31.286Z,4.18
2023-12-27T06:10:58.080Z,4.68
2023-12-27T06:13:24.861Z,4.30
2023-12-27T06:15:51.608Z,3.72
2023-12-27T06:18:18.609Z,4.45
2023-12-27T06:20:45.562Z,4.40
2023-12-27T06:23:12.408Z,5.00
2023-12-27T06:25:39.174Z,4.43
2023-12-27T06:28:06.168Z,4.50
2023-12-27T06:30:33.055Z,5.10
2023-12-27T06:33:00.180Z,4.95
2023-12-27T06:35:27.850Z,4.95
2023-12-27T06:37:54.720Z,4.35
2023-12-27T06:40:21.594Z,4.88
2023-12-27T06:42:48.390Z,4.45
2023-12-27T06:45:15.451Z,5.20
2023-12-27T06:47:42.287Z,4.78
2023-12-27T06:50:09.602Z,5.13
2023-12-27T06:52:36.449Z,4.90
2023-12-27T06:55:03.409Z,5.07
2023-12-27T06:57:30.360Z,5.53
2023-12-27T06:59:57.210Z,5.72
2023-12-27T07:02:24.291Z,5.32
2023-12-27T07:04:51.219Z,5.15
2023-12-27T07:07:18.062Z,5.38
2023-12-27T07:09:44.857Z,4.75
2023-12-27T07:12:13.221Z,5.30
2023-12-27T07:14:40.064Z,5.88
2023-12-27T07:17:07.960Z,5.15
2023-12-27T07:19:34.989Z,5.30
2023-12-27T07:22:03.807Z,5.30
2023-12-27T07:24:30.883Z,5.95
2023-12-27T07:26:58.085Z,6.57
2023-12-27T07:29:25.161Z,5.43
2023-12-27T07:31:52.002Z,5.97
2023-12-27T07:34:18.816Z,5.93
2023-12-27T07:36:45.852Z,5.85
2023-12-27T07:39:14.958Z,5.03
2023-12-27T07:41:41.912Z,4.40
2023-12-27T07:44:08.675Z,5.65
2023-12-27T07:46:36.143Z,4.95
2023-12-27T07:49:03.592Z,4.95
2023-12-27T07:51:30.571Z,5.28
2023-12-27T07:54:00.072Z,4.68
2023-12-27T07:56:29.365Z,4.60
2023-12-27T07:58:56.258Z,6.47
2023-12-27T08:01:27.292Z,5.32
2023-12-27T08:03:55.969Z,5.30
2023-12-27T08:06:23.072Z,5.30
2023-12-27T08:08:49.933Z,5.65
2023-12-27T08:11:16.809Z,5.60
2023-12-27T08:13:43.640Z,5.30
2023-12-27T08:16:10.546Z,5.45
2023-12-27T08:18:37.988Z,5.40
2023-12-27T08:21:05.951Z,5.82
2023-12-27T08:23:34.111Z,5.88
2023-12-27T08:26:01.032Z,5.68
2023-12-27T08:28:27.817Z,4.78
2023-12-27T08:30:54.827Z,5.03
2023-12-27T08:33:21.885Z,5.93
2023-12-27T08:35:48.684Z,5.65
2023-12-27T08:38:15.765Z,6.45
2023-12-27T08:40:42.564Z,5.25
2023-12-27T08:43:09.466Z,5.93
2023-12-27T08:45:36.393Z,6.47
2023-12-27T08:48:03.731Z,5.28
2023-12-27T08:50:31.108Z,6.07
2023-12-27T08:52:57.942Z,6.22
2023-12-27T08:55:24.722Z,5.70
2023-12-27T08:57:51.576Z,6.03
2023-12-27T09:00:20.206Z,5.90
2023-12-27T09:02:47.971Z,6.22
2023-12-27T09:05:14.774Z,5.88
2023-12-27T09:07:41.568Z,5.43
2023-12-27T09:10:08.526Z,5.53
2023-12-27T09:12:35.330Z,5.50
2023-12-27T09:15:02.900Z,5.90
2023-12-27T09:17:29.754Z,5.32
2023-12-27T09:19:56.623Z,5.10
2023-12-27T09:22:23.600Z,5.28
2023-12-27T09:24:50.535Z,6.10
2023-12-27T09:27:19.180Z,5.88
2023-12-27T09:29:46.107Z,5.55
2023-12-27T09:32:13.187Z,4.82
2023-12-27T09:34:40.376Z,4.70
2023-12-27T09:37:08.138Z,5.53
2023-12-27T09:39:35.153Z,5.35
2023-12-27T09:42:03.486Z,4.88
2023-12-27T09:44:30.963Z,5.32
2023-12-27T09:46:59.875Z,4.80
2023-12-27T09:49:27.422Z,4.80
2023-12-27T09:51:58.464Z,4.65
2023-12-27T09:54:25.953Z,5.70
2023-12-27T09:56:53.869Z,5.10
2023-12-27T09:59:29.618Z,4.78
2023-12-27T10:02:03.067Z,4.88
2023-12-27T10:04:56.625Z,4.97
2023-12-27T10:07:25.931Z,4.90
2023-12-27T10:09:53.701Z,5.90
2023-12-27T10:12:21.561Z,5.47
2023-12-27T10:14:49.686Z,5.00
2023-12-27T10:17:16.558Z,5.25
2023-12-27T10:19:45.968Z,4.95
2023-12-27T10:22:13.887Z,5.35
2023-12-27T10:24:41.084Z,4.53
2023-12-27T10:27:09.841Z,4.97
2023-12-27T10:29:37.053Z,4.65
2023-12-27T10:32:07.982Z,4.93
2023-12-27T10:34:35.184Z,5.57
2023-12-27T10:37:05.477Z,4.82
2023-12-27T10:39:32.692Z,4.97
2023-12-27T10:42:00.359Z,4.13
2023-12-27T10:44:27.823Z,4.53
2023-12-27T10:46:55.243Z,5.22
2023-12-27T10:49:23.892Z,5.22
2023-12-27T10:51:53.168Z,5.00
2023-12-27T10:54:22.328Z,4.32
2023-12-27T10:56:52.335Z,4.65
2023-12-27T10:59:20.053Z,4.30
2023-12-27T11:01:48.003Z,4.47
2023-12-27T11:04:16.997Z,4.88
2023-12-27T11:06:46.323Z,4.68
2023-12-27T11:09:14.974Z,4.68
2023-12-27T11:11:45.634Z,4.38
2023-12-27T11:14:15.981Z,4.40
2023-12-27T11:16:45.696Z,5.97
2023-12-27T11:19:13.845Z,6.03
2023-12-27T11:21:41.376Z,4.88
2023-12-27T11:24:08.525Z,4.78
2023-12-27T11:26:38.750Z,4.30
2023-12-27T11:29:11.381Z,4.28
2023-12-27T11:31:39.811Z,4.70
2023-12-27T11:34:07.573Z,4.63
2023-12-27T11:36:35.783Z,5.03
2023-12-27T11:39:17.539Z,4.32
2023-12-27T11:41:44.414Z,4.53
2023-12-27T11:44:11.241Z,4.28
2023-12-27T11:46:38.225Z,4.75
2023-12-27T11:49:05.597Z,4.18
2023-12-27T11:51:37.546Z,4.35
2023-12-27T11:54:07.471Z,3.90
2023-12-27T11:56:40.137Z,3.97
2023-12-27T11:59:09.029Z,5.35
2023-12-27T12:01:41.721Z,3.70
2023-12-27T12:04:10.318Z,4.50
2023-12-27T12:06:40.423Z,4.20
2023-12-27T12:09:08.484Z,3.90
2023-12-27T12:11:35.454Z,4.28
2023-12-27T12:14:05.283Z,3.92
2023-12-27T12:16:33.648Z,4.15
2023-12-27T12:19:02.373Z,4.35
2023-12-27T12:21:30.591Z,4.22
2023-12-27T12:23:57.624Z,4.30
2023-12-27T12:26:25.133Z,4.20
2023-12-27T12:28:56.693Z,4.35
2023-12-27T12:31:23.917Z,4.70
2023-12-27T12:33:51.068Z,4.18
2023-12-27T12:36:19.333Z,4.55
2023-12-27T12:38:46.395Z,4.30
2023-12-27T12:41:13.437Z,3.90
2023-12-27T12:43:40.371Z,3.50
2023-12-27T12:46:08.779Z,4.15
2023-12-27T12:48:38.173Z,3.65
2023-12-27T12:51:17.907Z,3.75
2023-12-27T12:53:45.265Z,3.50
2023-12-27T12:56:12.631Z,3.35
2023-12-27T12:58:42.667Z,14.00
2023-12-27T13:01:16.169Z,11.57
2023-12-27T13:03:44.824Z,25.00
2023-12-27T13:06:15.872Z,14.43
2023-12-27T13:08:43.924Z,6.10
2023-12-27T13:11:12.281Z,5.30
2023-12-27T13:13:39.400Z,4.88
2023-12-27T13:16:07.443Z,3.83
2023-12-27T13:18:35.187Z,3.33
2023-12-27T13:21:03.975Z,2.85
2023-12-27T13:23:30.799Z,2.50
2023-12-27T13:25:57.687Z,2.78
2023-12-27T13:28:26.240Z,2.25
2023-12-27T13:30:56.600Z,2.13
2023-12-27T13:33:26.319Z,2.45
2023-12-27T13:35:53.272Z,2.05
2023-12-27T13:38:20.112Z,2.45
2023-12-27T13:40:47.220Z,1.92
2023-12-27T13:43:15.290Z,2.67
2023-12-27T13:45:42.365Z,2.40
2023-12-27T13:48:09.450Z,1.77
2023-12-27T13:50:36.590Z,2.53
2023-12-27T13:53:03.566Z,2.80
2023-12-27T13:55:32.191Z,3.17
2023-12-27T13:57:59.267Z,3.10
2023-12-27T14:00:26.473Z,2.35
2023-12-27T14:02:53.604Z,1.80
2023-12-27T14:05:20.984Z,2.17
2023-12-27T14:07:50.560Z,2.05
2023-12-27T14:10:17.895Z,2.00
2023-12-27T14:12:44.918Z,1.98
2023-12-27T14:15:14.718Z,1.60
2023-12-27T14:17:43.165Z,1.80
2023-12-27T14:20:14.840Z,1.85
2023-12-27T14:22:43.177Z,1.20
2023-12-27T14:25:10.907Z,1.65
2023-12-27T14:27:41.336Z,1.98
2023-12-27T14:30:12.198Z,2.10
2023-12-27T14:32:39.401Z,1.50
2023-12-27T14:35:07.927Z,1.98
2023-12-27T14:37:35.254Z,1.60
2023-12-27T14:40:03.073Z,1.73
2023-12-27T14:42:31.877Z,1.73
2023-12-27T14:44:58.677Z,2.13
2023-12-27T14:47:25.515Z,2.13
2023-12-27T14:49:52.417Z,1.80
2023-12-27T14:52:19.320Z,1.83
2023-12-27T14:54:46.279Z,1.83
2023-12-27T14:57:13.472Z,1.90
2023-12-27T14:59:40.275Z,2.30
2023-12-27T15:02:07.555Z,1.90
2023-12-27T15:04:34.769Z,1.58
2023-12-27T15:07:03.074Z,1.65
2023-12-27T15:09:30.020Z,1.70
2023-12-27T15:11:56.868Z,1.55
2023-12-27T15:14:23.742Z,1.48
2023-12-27T15:16:51.393Z,1.50
2023-12-27T15:19:19.761Z,1.23
2023-12-27T15:21:47.582Z,1.50
2023-12-27T15:24:14.803Z,1.23
2023-12-27T15:26:41.958Z,1.10
2023-12-27T15:29:08.866Z,1.10
2023-12-27T15:31:35.972Z,1.25
2023-12-27T15:34:03.585Z,1.85
2023-12-27T15:36:30.739Z,1.42
2023-12-27T15:38:57.721Z,1.30
2023-12-27T15:41:29.758Z,1.25
2023-12-27T15:44:02.258Z,1.50
2023-12-27T15:46:32.266Z,1.70
2023-12-27T15:48:59.655Z,1.90
2023-12-27T15:51:34.726Z,1.40
2023-12-27T15:54:04.831Z,1.30
2023-12-27T15:56:39.017Z,1.85
2023-12-27T15:59:06.351Z,1.67
2023-12-27T16:01:36.988Z,1.50
2023-12-27T16:04:06.730Z,1.17
2023-12-27T16:06:36.768Z,1.30
2023-12-27T16:09:05.443Z,1.63
2023-12-27T16:11:32.484Z,1.55
2023-12-27T16:14:00.332Z,1.67
2023-12-27T16:16:27.444Z,1.30
2023-12-27T16:18:54.534Z,1.52
2023-12-27T16:21:21.874Z,1.67
2023-12-27T16:23:49.081Z,1.70
2023-12-27T16:26:18.553Z,1.80
2023-12-27T16:28:47.934Z,1.73
2023-12-27T16:31:15.142Z,1.30
2023-12-27T16:33:42.771Z,1.80
2023-12-27T16:36:11.233Z,1.48
2023-12-27T16:38:40.804Z,1.20
2023-12-27T16:41:08.877Z,1.30
2023-12-27T16:43:42.908Z,1.27
2023-12-27T16:46:11.671Z,1.80
2023-12-27T16:48:44.673Z,1.50
2023-12-27T16:51:11.962Z,1.60
2023-12-27T16:53:38.801Z,1.30
2023-12-27T16:56:12.813Z,1.52
2023-12-27T16:58:39.928Z,1.50
2023-12-27T17:01:07.747Z,1.80
2023-12-27T17:03:34.784Z,1.45
2023-12-27T17:06:01.697Z,2.17
2023-12-27T17:08:28.756Z,1.90
2023-12-27T17:10:55.727Z,1.42
2023-12-27T17:13:22.498Z,2.00
2023-12-27T17:15:49.425Z,3.15
2023-12-27T17:18:16.443Z,2.38
2023-12-27T17:20:43.674Z,1.65
2023-12-27T17:23:10.407Z,1.73
2023-12-27T17:25:40.414Z,1.63
2023-12-27T17:28:08.031Z,1.65
2023-12-27T17:30:35.406Z,1.67
2023-12-27T17:33:04.426Z,1.40
2023-12-27T17:35:31.854Z,1.60
2023-12-27T17:37:58.712Z,1.85
2023-12-27T17:40:25.993Z,2.15
2023-12-27T17:42:53.046Z,1.88
2023-12-27T17:45:20.251Z,1.73
2023-12-27T17:47:47.228Z,2.22
2023-12-27T17:50:14.231Z,2.67
2023-12-27T17:52:41.124Z,2.88
2023-12-27T17:55:08.232Z,2.33
2023-12-27T17:57:36.994Z,1.90
2023-12-27T18:00:07.752Z,2.00
2023-12-27T18:02:36.307Z,2.00
2023-12-27T18:05:04.346Z,1.90
2023-12-27T18:07:31.768Z,2.05
2023-12-27T18:09:58.633Z,2.50
2023-12-27T18:12:25.454Z,2.60
2023-12-27T18:14:54.267Z,2.30
2023-12-27T18:17:21.599Z,2.15
2023-12-27T18:19:48.699Z,1.73
2023-12-27T18:22:15.596Z,2.05
2023-12-27T18:24:42.563Z,1.88
2023-12-27T18:27:09.669Z,1.95
2023-12-27T18:29:37.991Z,2.42
2023-12-27T18:32:06.021Z,2.25
2023-12-27T18:34:37.844Z,2.17
2023-12-27T18:37:04.962Z,3.13
2023-12-27T18:39:32.152Z,3.78
2023-12-27T18:41:59.162Z,2.45
2023-12-27T18:44:26.743Z,2.53
2023-12-27T18:46:53.815Z,2.33
2023-12-27T18:49:21.741Z,2.33
2023-12-27T18:51:49.369Z,1.95
2023-12-27T18:54:16.467Z,2.40
2023-12-27T18:56:43.510Z,2.03
2023-12-27T18:59:11.629Z,1.77
2023-12-27T19:01:38.506Z,2.10
2023-12-27T19:04:05.512Z,2.20
2023-12-27T19:06:32.740Z,1.58
2023-12-27T19:09:00.386Z,1.70
2023-12-27T19:11:28.946Z,1.35
2023-12-27T19:13:58.488Z,1.63
2023-12-27T19:16:27.679Z,1.52
2023-12-27T19:18:55.276Z,1.27
2023-12-27T19:21:22.922Z,1.55
2023-12-27T19:23:49.830Z,1.77
2023-12-27T19:26:18.636Z,1.60
2023-12-27T19:28:48.056Z,1.70
2023-12-27T19:31:15.120Z,1.88
2023-12-27T19:33:42.385Z,1.50
2023-12-27T19:36:10.220Z,1.60
2023-12-27T19:38:38.104Z,1.85
2023-12-27T19:41:06.323Z,2.38
2023-12-27T19:43:34.150Z,2.33
2023-12-27T19:46:01.644Z,2.38
2023-12-27T19:48:29.000Z,2.58
2023-12-27T19:50:56.650Z,1.90
2023-12-27T19:53:24.109Z,2.33
2023-12-27T19:55:51.586Z,1.70
2023-12-27T19:58:19.580Z,1.50
2023-12-27T20:00:47.676Z,1.63
2023-12-27T20:03:14.941Z,2.03
2023-12-27T20:05:42.235Z,1.67
2023-12-27T20:08:10.303Z,1.52
2023-12-27T20:10:37.263Z,1.55
2023-12-27T20:13:05.564Z,2.30
2023-12-27T20:15:47.515Z,1.55
2023-12-27T20:18:20.190Z,1.88
2023-12-27T20:20:47.294Z,1.92
2023-12-27T20:23:14.418Z,2.03
2023-12-27T20:25:42.009Z,1.52
2023-12-27T20:28:10.295Z,1.70
2023-12-27T20:30:37.437Z,1.40
2023-12-27T20:33:04.792Z,1.42
2023-12-27T20:35:37.143Z,1.40
2023-12-27T20:38:05.282Z,1.58
2023-12-27T20:40:32.403Z,1.63
2023-12-27T20:42:59.396Z,1.38
2023-12-27T20:45:26.365Z,1.33
2023-12-27T20:50:22.158Z,1.38
2023-12-27T20:52:49.270Z,1.27
2023-12-27T20:55:16.679Z,1.58
2023-12-27T20:57:46.228Z,1.10
2023-12-27T21:00:13.694Z,1.73
2023-12-27T21:02:40.608Z,1.40
2023-12-27T21:05:08.277Z,1.85
2023-12-27T21:07:35.103Z,2.00
2023-12-27T21:10:03.501Z,2.10
2023-12-27T21:12:38.531Z,1.48
2023-12-27T21:15:07.677Z,1.40
2023-12-27T21:17:39.229Z,1.50
2023-12-27T21:20:07.398Z,1.38
2023-12-27T21:22:34.993Z,1.30
2023-12-27T21:25:04.408Z,1.10
2023-12-27T21:27:31.351Z,1.10
2023-12-27T21:30:02.435Z,1.30
2023-12-27T21:32:29.949Z,1.67
2023-12-27T21:34:57.172Z,1.40
2023-12-27T21:37:24.048Z,1.60
2023-12-27T21:39:51.014Z,2.08
2023-12-27T21:42:17.942Z,2.45
2023-12-27T21:44:44.787Z,2.05
2023-12-27T21:47:11.637Z,1.50
2023-12-27T21:49:38.584Z,2.17
2023-12-27T21:52:05.631Z,1.02
2023-12-27T21:54:32.543Z,1.10
2023-12-27T21:56:59.365Z,1.52
2023-12-27T21:59:26.158Z,1.02
2023-12-27T22:01:53.045Z,0.85
2023-12-27T22:04:19.883Z,1.00
2023-12-27T22:06:47.065Z,0.80
2023-12-27T22:09:14.082Z,0.90
2023-12-27T22:11:41.040Z,0.98
2023-12-27T22:14:08.140Z,0.90
2023-12-27T22:16:36.332Z,1.10
2023-12-27T22:19:03.277Z,1.25
2023-12-27T22:21:31.130Z,1.25
2023-12-27T22:23:59.020Z,0.85
2023-12-27T22:26:25.983Z,1.42
2023-12-27T22:28:52.840Z,1.20
2023-12-27T22:31:23.747Z,1.10
2023-12-27T22:33:51.251Z,1.25
2023-12-27T22:36:23.026Z,1.10
2023-12-27T22:38:51.814Z,1.17
2023-12-27T22:41:18.861Z,1.30
2023-12-27T22:43:45.781Z,1.25
2023-12-27T22:46:12.590Z,1.00
2023-12-27T22:48:39.490Z,1.23
2023-12-27T22:51:06.354Z,1.30
2023-12-27T22:53:33.200Z,1.08
2023-12-27T22:56:00.027Z,1.27
2023-12-27T22:58:26.943Z,0.90
2023-12-27T23:00:53.781Z,1.00
2023-12-27T23:03:21.988Z,1.65
2023-12-27T23:05:49.472Z,1.30
2023-12-27T23:08:16.456Z,1.70
2023-12-27T23:10:43.269Z,1.10
2023-12-27T23:13:10.066Z,1.33
2023-12-27T23:15:37.136Z,1.80
2023-12-27T23:18:04.318Z,1.30
2023-12-27T23:20:31.220Z,1.27
2023-12-27T23:22:58.044Z,1.48
2023-12-27T23:25:24.823Z,1.60
2023-12-27T23:27:52.184Z,1.70
2023-12-27T23:30:19.360Z,1.40
2023-12-27T23:32:51.079Z,1.27
2023-12-27T23:35:19.489Z,1.20
2023-12-27T23:37:46.287Z,1.40
2023-12-27T23:40:13.467Z,1.23
2023-12-27T23:42:40.440Z,1.02
2023-12-27T23:45:07.874Z,1.23
2023-12-27T23:47:34.858Z,1.45
2023-12-27T23:50:03.189Z,1.23
2023-12-27T23:52:30.039Z,1.40
2023-12-27T23:54:56.975Z,1.45
2023-12-27T23:57:23.854Z,1.13
2023-12-27T23:59:50.734Z,1.63
